sensor_id;sensor_type;location;lat;lon;timestamp;temperature;humidity
70830;SHT30;58451;51.550;7.208;2023-05-07T00:00:48;14.74;80.47
70830;SHT30;58451;51.550;7.208;2023-05-07T00:02:21;14.73;80.47
70830;SHT30;58451;51.550;7.208;2023-05-07T00:03:54;14.74;80.43
70830;SHT30;58451;51.550;7.208;2023-05-07T00:05:26;14.73;80.50
70830;SHT30;58451;51.550;7.208;2023-05-07T00:06:58;14.73;80.52
70830;SHT30;58451;51.550;7.208;2023-05-07T00:08:30;14.73;80.57
70830;SHT30;58451;51.550;7.208;2023-05-07T00:10:04;14.74;80.53
70830;SHT30;58451;51.550;7.208;2023-05-07T00:11:38;14.73;80.50
70830;SHT30;58451;51.550;7.208;2023-05-07T00:13:10;14.73;80.55
70830;SHT30;58451;51.550;7.208;2023-05-07T00:14:42;14.74;80.55
70830;SHT30;58451;51.550;7.208;2023-05-07T00:16:13;14.73;80.57
70830;SHT30;58451;51.550;7.208;2023-05-07T00:17:45;14.73;80.60
70830;SHT30;58451;51.550;7.208;2023-05-07T00:19:17;14.73;80.55
70830;SHT30;58451;51.550;7.208;2023-05-07T00:20:49;14.73;80.55
70830;SHT30;58451;51.550;7.208;2023-05-07T00:22:21;14.73;80.60
70830;SHT30;58451;51.550;7.208;2023-05-07T00:23:53;14.73;80.65
70830;SHT30;58451;51.550;7.208;2023-05-07T00:25:25;14.74;80.65
70830;SHT30;58451;51.550;7.208;2023-05-07T00:26:59;14.73;80.63
70830;SHT30;58451;51.550;7.208;2023-05-07T00:28:30;14.73;80.65
70830;SHT30;58451;51.550;7.208;2023-05-07T00:30:02;14.73;80.65
70830;SHT30;58451;51.550;7.208;2023-05-07T00:31:35;14.72;80.65
70830;SHT30;58451;51.550;7.208;2023-05-07T00:33:07;14.70;80.68
70830;SHT30;58451;51.550;7.208;2023-05-07T00:34:39;14.69;80.70
70830;SHT30;58451;51.550;7.208;2023-05-07T00:36:11;14.67;80.78
70830;SHT30;58451;51.550;7.208;2023-05-07T00:37:43;14.65;80.80
70830;SHT30;58451;51.550;7.208;2023-05-07T00:39:15;14.64;80.85
70830;SHT30;58451;51.550;7.208;2023-05-07T00:40:48;14.62;80.93
70830;SHT30;58451;51.550;7.208;2023-05-07T00:42:20;14.61;80.97
70830;SHT30;58451;51.550;7.208;2023-05-07T00:43:52;14.59;81.05
70830;SHT30;58451;51.550;7.208;2023-05-07T00:45:26;14.58;81.10
70830;SHT30;58451;51.550;7.208;2023-05-07T00:47:01;14.55;81.15
70830;SHT30;58451;51.550;7.208;2023-05-07T00:48:36;14.52;81.13
70830;SHT30;58451;51.550;7.208;2023-05-07T00:50:08;14.50;81.17
70830;SHT30;58451;51.550;7.208;2023-05-07T00:51:42;14.49;81.27
70830;SHT30;58451;51.550;7.208;2023-05-07T00:53:15;14.49;81.25
70830;SHT30;58451;51.550;7.208;2023-05-07T00:54:47;14.48;81.27
70830;SHT30;58451;51.550;7.208;2023-05-07T00:56:20;14.46;81.32
70830;SHT30;58451;51.550;7.208;2023-05-07T00:57:53;14.45;81.37
70830;SHT30;58451;51.550;7.208;2023-05-07T00:59:25;14.44;81.35
70830;SHT30;58451;51.550;7.208;2023-05-07T01:00:57;14.44;81.40
70830;SHT30;58451;51.550;7.208;2023-05-07T01:02:29;14.43;81.47
70830;SHT30;58451;51.550;7.208;2023-05-07T01:04:01;14.42;81.50
70830;SHT30;58451;51.550;7.208;2023-05-07T01:05:34;14.41;81.58
70830;SHT30;58451;51.550;7.208;2023-05-07T01:07:07;14.40;81.57
70830;SHT30;58451;51.550;7.208;2023-05-07T01:08:39;14.39;81.53
70830;SHT30;58451;51.550;7.208;2023-05-07T01:10:13;14.39;81.65
70830;SHT30;58451;51.550;7.208;2023-05-07T01:11:47;14.36;81.92
70830;SHT30;58451;51.550;7.208;2023-05-07T01:13:21;14.35;81.82
70830;SHT30;58451;51.550;7.208;2023-05-07T01:14:55;14.33;81.72
70830;SHT30;58451;51.550;7.208;2023-05-07T01:16:27;14.34;81.77
70830;SHT30;58451;51.550;7.208;2023-05-07T01:17:59;14.34;81.82
70830;SHT30;58451;51.550;7.208;2023-05-07T01:19:35;14.32;81.82
70830;SHT30;58451;51.550;7.208;2023-05-07T01:21:07;14.32;81.82
70830;SHT30;58451;51.550;7.208;2023-05-07T01:22:42;14.32;81.85
70830;SHT30;58451;51.550;7.208;2023-05-07T01:24:15;14.34;81.82
70830;SHT30;58451;51.550;7.208;2023-05-07T01:25:51;14.35;81.87
70830;SHT30;58451;51.550;7.208;2023-05-07T01:27:27;14.35;81.83
70830;SHT30;58451;51.550;7.208;2023-05-07T01:28:59;14.36;81.83
70830;SHT30;58451;51.550;7.208;2023-05-07T01:30:32;14.36;81.92
70830;SHT30;58451;51.550;7.208;2023-05-07T01:32:06;14.37;81.87
70830;SHT30;58451;51.550;7.208;2023-05-07T01:33:39;14.36;82.27
70830;SHT30;58451;51.550;7.208;2023-05-07T01:35:18;14.36;82.18
70830;SHT30;58451;51.550;7.208;2023-05-07T01:36:55;14.38;82.10
70830;SHT30;58451;51.550;7.208;2023-05-07T01:38:29;14.38;82.07
70830;SHT30;58451;51.550;7.208;2023-05-07T01:40:01;14.37;82.08
70830;SHT30;58451;51.550;7.208;2023-05-07T01:41:34;14.37;82.12
70830;SHT30;58451;51.550;7.208;2023-05-07T01:43:07;14.38;82.12
70830;SHT30;58451;51.550;7.208;2023-05-07T01:44:40;14.38;82.12
70830;SHT30;58451;51.550;7.208;2023-05-07T01:46:12;14.39;82.12
70830;SHT30;58451;51.550;7.208;2023-05-07T01:47:47;14.40;82.20
70830;SHT30;58451;51.550;7.208;2023-05-07T01:49:21;14.40;82.33
70830;SHT30;58451;51.550;7.208;2023-05-07T01:50:53;14.38;82.27
70830;SHT30;58451;51.550;7.208;2023-05-07T01:52:26;14.38;82.18
70830;SHT30;58451;51.550;7.208;2023-05-07T01:54:00;14.39;82.18
70830;SHT30;58451;51.550;7.208;2023-05-07T01:55:32;14.40;82.20
70830;SHT30;58451;51.550;7.208;2023-05-07T01:57:04;14.39;82.18
70830;SHT30;58451;51.550;7.208;2023-05-07T01:58:36;14.39;82.18
70830;SHT30;58451;51.550;7.208;2023-05-07T02:00:08;14.41;82.15
70830;SHT30;58451;51.550;7.208;2023-05-07T02:01:47;14.42;82.12
70830;SHT30;58451;51.550;7.208;2023-05-07T02:03:19;14.42;82.10
70830;SHT30;58451;51.550;7.208;2023-05-07T02:04:56;14.41;82.08
70830;SHT30;58451;51.550;7.208;2023-05-07T02:06:28;14.41;82.10
70830;SHT30;58451;51.550;7.208;2023-05-07T02:08:05;14.42;82.08
70830;SHT30;58451;51.550;7.208;2023-05-07T02:09:37;14.41;82.12
70830;SHT30;58451;51.550;7.208;2023-05-07T02:11:09;14.40;82.32
70830;SHT30;58451;51.550;7.208;2023-05-07T02:12:41;14.39;82.30
70830;SHT30;58451;51.550;7.208;2023-05-07T02:14:14;14.38;82.22
70830;SHT30;58451;51.550;7.208;2023-05-07T02:15:46;14.38;82.23
70830;SHT30;58451;51.550;7.208;2023-05-07T02:17:22;14.37;82.17
70830;SHT30;58451;51.550;7.208;2023-05-07T02:18:54;14.36;82.22
70830;SHT30;58451;51.550;7.208;2023-05-07T02:20:26;14.36;82.32
70830;SHT30;58451;51.550;7.208;2023-05-07T02:21:58;14.35;82.23
70830;SHT30;58451;51.550;7.208;2023-05-07T02:23:33;14.34;82.33
70830;SHT30;58451;51.550;7.208;2023-05-07T02:25:05;14.33;82.33
70830;SHT30;58451;51.550;7.208;2023-05-07T02:26:38;14.33;82.25
70830;SHT30;58451;51.550;7.208;2023-05-07T02:28:11;14.32;82.23
70830;SHT30;58451;51.550;7.208;2023-05-07T02:29:52;14.31;82.22
70830;SHT30;58451;51.550;7.208;2023-05-07T02:31:24;14.31;82.22
70830;SHT30;58451;51.550;7.208;2023-05-07T02:32:56;14.31;82.28
70830;SHT30;58451;51.550;7.208;2023-05-07T02:34:28;14.30;82.27
70830;SHT30;58451;51.550;7.208;2023-05-07T02:36:09;14.28;82.30
70830;SHT30;58451;51.550;7.208;2023-05-07T02:37:51;14.26;82.28
70830;SHT30;58451;51.550;7.208;2023-05-07T02:39:23;14.24;82.25
70830;SHT30;58451;51.550;7.208;2023-05-07T02:40:55;14.24;82.30
70830;SHT30;58451;51.550;7.208;2023-05-07T02:42:26;14.23;82.33
70830;SHT30;58451;51.550;7.208;2023-05-07T02:43:58;14.22;82.37
70830;SHT30;58451;51.550;7.208;2023-05-07T02:45:30;14.20;82.37
70830;SHT30;58451;51.550;7.208;2023-05-07T02:47:04;14.20;82.40
70830;SHT30;58451;51.550;7.208;2023-05-07T02:48:36;14.19;82.43
70830;SHT30;58451;51.550;7.208;2023-05-07T02:50:08;14.19;82.42
70830;SHT30;58451;51.550;7.208;2023-05-07T02:51:41;14.18;82.42
70830;SHT30;58451;51.550;7.208;2023-05-07T02:53:16;14.18;82.48
70830;SHT30;58451;51.550;7.208;2023-05-07T02:54:48;14.18;82.52
70830;SHT30;58451;51.550;7.208;2023-05-07T02:56:19;14.18;82.53
70830;SHT30;58451;51.550;7.208;2023-05-07T02:57:52;14.18;82.58
70830;SHT30;58451;51.550;7.208;2023-05-07T02:59:24;14.18;82.62
70830;SHT30;58451;51.550;7.208;2023-05-07T03:00:57;14.18;82.62
70830;SHT30;58451;51.550;7.208;2023-05-07T03:02:41;14.17;82.58
70830;SHT30;58451;51.550;7.208;2023-05-07T03:04:13;14.18;82.63
70830;SHT30;58451;51.550;7.208;2023-05-07T03:05:44;14.17;82.65
70830;SHT30;58451;51.550;7.208;2023-05-07T03:07:16;14.18;82.65
70830;SHT30;58451;51.550;7.208;2023-05-07T03:08:48;14.19;82.70
70830;SHT30;58451;51.550;7.208;2023-05-07T03:10:20;14.18;82.75
70830;SHT30;58451;51.550;7.208;2023-05-07T03:11:51;14.18;82.75
70830;SHT30;58451;51.550;7.208;2023-05-07T03:13:24;14.19;82.77
70830;SHT30;58451;51.550;7.208;2023-05-07T03:14:56;14.19;82.77
70830;SHT30;58451;51.550;7.208;2023-05-07T03:16:28;14.19;82.83
70830;SHT30;58451;51.550;7.208;2023-05-07T03:18:00;14.19;82.85
70830;SHT30;58451;51.550;7.208;2023-05-07T03:19:32;14.19;82.85
70830;SHT30;58451;51.550;7.208;2023-05-07T03:21:04;14.18;82.85
70830;SHT30;58451;51.550;7.208;2023-05-07T03:22:36;14.19;82.83
70830;SHT30;58451;51.550;7.208;2023-05-07T03:24:08;14.19;82.90
70830;SHT30;58451;51.550;7.208;2023-05-07T03:25:40;14.17;82.95
70830;SHT30;58451;51.550;7.208;2023-05-07T03:27:12;14.18;82.92
70830;SHT30;58451;51.550;7.208;2023-05-07T03:28:44;14.18;82.93
70830;SHT30;58451;51.550;7.208;2023-05-07T03:30:17;14.17;83.05
70830;SHT30;58451;51.550;7.208;2023-05-07T03:31:50;14.16;83.08
70830;SHT30;58451;51.550;7.208;2023-05-07T03:33:23;14.15;83.05
70830;SHT30;58451;51.550;7.208;2023-05-07T03:34:55;14.14;83.02
70830;SHT30;58451;51.550;7.208;2023-05-07T03:36:27;14.15;83.02
70830;SHT30;58451;51.550;7.208;2023-05-07T03:37:59;14.12;83.00
70830;SHT30;58451;51.550;7.208;2023-05-07T03:39:32;14.13;82.98
70830;SHT30;58451;51.550;7.208;2023-05-07T03:41:04;14.13;83.00
70830;SHT30;58451;51.550;7.208;2023-05-07T03:42:36;14.13;83.00
70830;SHT30;58451;51.550;7.208;2023-05-07T03:44:08;14.14;83.05
70830;SHT30;58451;51.550;7.208;2023-05-07T03:45:40;14.13;83.05
70830;SHT30;58451;51.550;7.208;2023-05-07T03:47:23;14.11;83.03
70830;SHT30;58451;51.550;7.208;2023-05-07T03:48:55;14.11;83.05
70830;SHT30;58451;51.550;7.208;2023-05-07T03:50:27;14.10;83.02
70830;SHT30;58451;51.550;7.208;2023-05-07T03:51:58;14.10;82.97
70830;SHT30;58451;51.550;7.208;2023-05-07T03:53:30;14.09;83.05
70830;SHT30;58451;51.550;7.208;2023-05-07T03:55:02;14.10;83.05
70830;SHT30;58451;51.550;7.208;2023-05-07T03:56:35;14.10;83.03
70830;SHT30;58451;51.550;7.208;2023-05-07T03:58:07;14.09;83.05
70830;SHT30;58451;51.550;7.208;2023-05-07T03:59:39;14.09;83.05
70830;SHT30;58451;51.550;7.208;2023-05-07T04:01:11;14.09;83.07
70830;SHT30;58451;51.550;7.208;2023-05-07T04:02:43;14.09;83.03
70830;SHT30;58451;51.550;7.208;2023-05-07T04:04:15;14.09;83.02
70830;SHT30;58451;51.550;7.208;2023-05-07T04:05:47;14.10;83.05
70830;SHT30;58451;51.550;7.208;2023-05-07T04:07:19;14.09;83.05
70830;SHT30;58451;51.550;7.208;2023-05-07T04:08:53;14.10;83.05
70830;SHT30;58451;51.550;7.208;2023-05-07T04:10:25;14.08;83.03
70830;SHT30;58451;51.550;7.208;2023-05-07T04:11:58;14.08;83.08
70830;SHT30;58451;51.550;7.208;2023-05-07T04:13:30;14.08;83.13
70830;SHT30;58451;51.550;7.208;2023-05-07T04:15:02;14.07;83.13
70830;SHT30;58451;51.550;7.208;2023-05-07T04:16:34;14.07;83.17
70830;SHT30;58451;51.550;7.208;2023-05-07T04:18:07;14.06;83.10
70830;SHT30;58451;51.550;7.208;2023-05-07T04:19:39;14.07;83.18
70830;SHT30;58451;51.550;7.208;2023-05-07T04:21:15;14.07;83.12
70830;SHT30;58451;51.550;7.208;2023-05-07T04:22:49;14.09;83.13
70830;SHT30;58451;51.550;7.208;2023-05-07T04:24:21;14.10;83.17
70830;SHT30;58451;51.550;7.208;2023-05-07T04:25:53;14.11;83.17
70830;SHT30;58451;51.550;7.208;2023-05-07T04:27:28;14.11;83.10
70830;SHT30;58451;51.550;7.208;2023-05-07T04:29:01;14.12;83.10
70830;SHT30;58451;51.550;7.208;2023-05-07T04:30:36;14.14;83.12
70830;SHT30;58451;51.550;7.208;2023-05-07T04:32:08;14.16;83.10
70830;SHT30;58451;51.550;7.208;2023-05-07T04:33:41;14.18;83.05
70830;SHT30;58451;51.550;7.208;2023-05-07T04:35:15;14.20;83.08
70830;SHT30;58451;51.550;7.208;2023-05-07T04:36:47;14.23;83.08
70830;SHT30;58451;51.550;7.208;2023-05-07T04:38:19;14.25;83.13
70830;SHT30;58451;51.550;7.208;2023-05-07T04:39:52;14.28;83.08
70830;SHT30;58451;51.550;7.208;2023-05-07T04:41:25;14.29;83.02
70830;SHT30;58451;51.550;7.208;2023-05-07T04:42:58;14.32;83.03
70830;SHT30;58451;51.550;7.208;2023-05-07T04:44:30;14.35;82.92
70830;SHT30;58451;51.550;7.208;2023-05-07T04:46:02;14.40;82.93
70830;SHT30;58451;51.550;7.208;2023-05-07T04:47:34;14.45;82.92
70830;SHT30;58451;51.550;7.208;2023-05-07T04:49:06;14.48;82.85
70830;SHT30;58451;51.550;7.208;2023-05-07T04:50:38;14.53;82.80
70830;SHT30;58451;51.550;7.208;2023-05-07T04:52:10;14.59;82.77
70830;SHT30;58451;51.550;7.208;2023-05-07T04:53:42;14.65;82.73
70830;SHT30;58451;51.550;7.208;2023-05-07T04:55:14;14.71;82.67
70830;SHT30;58451;51.550;7.208;2023-05-07T04:56:47;14.77;82.65
70830;SHT30;58451;51.550;7.208;2023-05-07T04:58:18;14.80;82.55
70830;SHT30;58451;51.550;7.208;2023-05-07T04:59:51;14.82;82.50
70830;SHT30;58451;51.550;7.208;2023-05-07T05:01:22;14.88;82.43
70830;SHT30;58451;51.550;7.208;2023-05-07T05:02:54;14.92;82.33
70830;SHT30;58451;51.550;7.208;2023-05-07T05:04:26;14.96;82.32
70830;SHT30;58451;51.550;7.208;2023-05-07T05:05:58;14.99;82.23
70830;SHT30;58451;51.550;7.208;2023-05-07T05:07:33;15.03;82.20
70830;SHT30;58451;51.550;7.208;2023-05-07T05:09:04;15.06;82.17
70830;SHT30;58451;51.550;7.208;2023-05-07T05:10:37;15.08;82.10
70830;SHT30;58451;51.550;7.208;2023-05-07T05:12:09;15.11;82.03
70830;SHT30;58451;51.550;7.208;2023-05-07T05:13:41;15.13;81.98
70830;SHT30;58451;51.550;7.208;2023-05-07T05:15:20;15.14;81.87
70830;SHT30;58451;51.550;7.208;2023-05-07T05:16:51;15.15;81.78
70830;SHT30;58451;51.550;7.208;2023-05-07T05:18:23;15.15;81.73
70830;SHT30;58451;51.550;7.208;2023-05-07T05:19:55;15.16;81.67
70830;SHT30;58451;51.550;7.208;2023-05-07T05:21:28;15.16;81.62
70830;SHT30;58451;51.550;7.208;2023-05-07T05:23:03;15.18;81.53
70830;SHT30;58451;51.550;7.208;2023-05-07T05:24:35;15.19;81.52
70830;SHT30;58451;51.550;7.208;2023-05-07T05:26:07;15.23;81.47
70830;SHT30;58451;51.550;7.208;2023-05-07T05:27:39;15.28;81.42
70830;SHT30;58451;51.550;7.208;2023-05-07T05:29:11;15.33;81.32
70830;SHT30;58451;51.550;7.208;2023-05-07T05:30:44;15.36;81.20
70830;SHT30;58451;51.550;7.208;2023-05-07T05:32:16;15.40;81.12
70830;SHT30;58451;51.550;7.208;2023-05-07T05:33:48;15.41;81.02
70830;SHT30;58451;51.550;7.208;2023-05-07T05:35:20;15.45;80.93
70830;SHT30;58451;51.550;7.208;2023-05-07T05:36:53;15.49;80.83
70830;SHT30;58451;51.550;7.208;2023-05-07T05:38:24;15.49;80.78
70830;SHT30;58451;51.550;7.208;2023-05-07T05:39:57;15.53;80.75
70830;SHT30;58451;51.550;7.208;2023-05-07T05:41:29;15.53;80.68
70830;SHT30;58451;51.550;7.208;2023-05-07T05:43:02;15.53;80.60
70830;SHT30;58451;51.550;7.208;2023-05-07T05:44:34;15.54;80.52
70830;SHT30;58451;51.550;7.208;2023-05-07T05:46:06;15.54;80.47
70830;SHT30;58451;51.550;7.208;2023-05-07T05:47:40;15.55;80.42
70830;SHT30;58451;51.550;7.208;2023-05-07T05:49:12;15.60;80.40
70830;SHT30;58451;51.550;7.208;2023-05-07T05:50:45;15.65;80.33
70830;SHT30;58451;51.550;7.208;2023-05-07T05:52:17;15.71;80.22
70830;SHT30;58451;51.550;7.208;2023-05-07T05:53:49;15.81;80.08
70830;SHT30;58451;51.550;7.208;2023-05-07T05:55:21;15.89;79.97
70830;SHT30;58451;51.550;7.208;2023-05-07T05:56:53;15.93;79.88
70830;SHT30;58451;51.550;7.208;2023-05-07T05:58:26;15.97;79.82
70830;SHT30;58451;51.550;7.208;2023-05-07T06:00:02;16.01;79.73
70830;SHT30;58451;51.550;7.208;2023-05-07T06:01:36;16.08;79.62
70830;SHT30;58451;51.550;7.208;2023-05-07T06:03:08;16.18;79.58
70830;SHT30;58451;51.550;7.208;2023-05-07T06:04:40;16.26;79.48
70830;SHT30;58451;51.550;7.208;2023-05-07T06:06:14;16.34;79.38
70830;SHT30;58451;51.550;7.208;2023-05-07T06:07:46;16.46;79.30
70830;SHT30;58451;51.550;7.208;2023-05-07T06:09:18;16.57;79.20
70830;SHT30;58451;51.550;7.208;2023-05-07T06:10:50;16.69;78.95
70830;SHT30;58451;51.550;7.208;2023-05-07T06:12:22;16.78;78.57
70830;SHT30;58451;51.550;7.208;2023-05-07T06:13:54;16.86;78.27
70830;SHT30;58451;51.550;7.208;2023-05-07T06:15:26;16.97;78.28
70830;SHT30;58451;51.550;7.208;2023-05-07T06:16:59;17.13;78.13
70830;SHT30;58451;51.550;7.208;2023-05-07T06:18:30;17.24;77.70
70830;SHT30;58451;51.550;7.208;2023-05-07T06:20:03;17.35;77.28
70830;SHT30;58451;51.550;7.208;2023-05-07T06:21:35;17.37;77.00
70830;SHT30;58451;51.550;7.208;2023-05-07T06:23:07;17.41;76.90
70830;SHT30;58451;51.550;7.208;2023-05-07T06:24:39;17.43;76.80
70830;SHT30;58451;51.550;7.208;2023-05-07T06:26:12;17.49;76.52
70830;SHT30;58451;51.550;7.208;2023-05-07T06:27:45;17.53;76.25
70830;SHT30;58451;51.550;7.208;2023-05-07T06:29:17;17.58;76.05
70830;SHT30;58451;51.550;7.208;2023-05-07T06:30:50;17.62;75.98
70830;SHT30;58451;51.550;7.208;2023-05-07T06:32:22;17.66;75.67
70830;SHT30;58451;51.550;7.208;2023-05-07T06:33:54;17.72;75.67
70830;SHT30;58451;51.550;7.208;2023-05-07T06:35:27;17.76;75.45
70830;SHT30;58451;51.550;7.208;2023-05-07T06:36:59;17.81;75.12
70830;SHT30;58451;51.550;7.208;2023-05-07T06:38:40;17.83;74.80
70830;SHT30;58451;51.550;7.208;2023-05-07T06:40:12;17.84;74.95
70830;SHT30;58451;51.550;7.208;2023-05-07T06:41:45;17.88;74.78
70830;SHT30;58451;51.550;7.208;2023-05-07T06:43:25;17.90;74.57
70830;SHT30;58451;51.550;7.208;2023-05-07T06:45:30;17.90;74.72
70830;SHT30;58451;51.550;7.208;2023-05-07T06:47:03;17.95;74.65
70830;SHT30;58451;51.550;7.208;2023-05-07T06:48:35;18.03;74.32
70830;SHT30;58451;51.550;7.208;2023-05-07T06:50:08;18.10;74.38
70830;SHT30;58451;51.550;7.208;2023-05-07T06:51:42;18.15;74.28
70830;SHT30;58451;51.550;7.208;2023-05-07T06:53:14;18.20;74.13
70830;SHT30;58451;51.550;7.208;2023-05-07T06:54:46;18.26;74.15
70830;SHT30;58451;51.550;7.208;2023-05-07T06:56:19;18.33;74.08
70830;SHT30;58451;51.550;7.208;2023-05-07T06:57:52;18.40;73.68
70830;SHT30;58451;51.550;7.208;2023-05-07T06:59:25;18.43;73.25
70830;SHT30;58451;51.550;7.208;2023-05-07T07:00:57;18.46;73.22
70830;SHT30;58451;51.550;7.208;2023-05-07T07:02:29;18.46;73.12
70830;SHT30;58451;51.550;7.208;2023-05-07T07:04:01;18.49;72.90
70830;SHT30;58451;51.550;7.208;2023-05-07T07:05:33;18.54;72.57
70830;SHT30;58451;51.550;7.208;2023-05-07T07:07:06;18.60;72.63
70830;SHT30;58451;51.550;7.208;2023-05-07T07:08:39;18.67;72.68
70830;SHT30;58451;51.550;7.208;2023-05-07T07:10:11;18.73;72.28
70830;SHT30;58451;51.550;7.208;2023-05-07T07:11:43;18.90;72.38
70830;SHT30;58451;51.550;7.208;2023-05-07T07:13:15;19.01;72.12
70830;SHT30;58451;51.550;7.208;2023-05-07T07:14:47;19.13;71.98
70830;SHT30;58451;51.550;7.208;2023-05-07T07:16:20;19.29;71.97
70830;SHT30;58451;51.550;7.208;2023-05-07T07:17:54;19.41;71.53
70830;SHT30;58451;51.550;7.208;2023-05-07T07:19:26;19.54;71.33
70830;SHT30;58451;51.550;7.208;2023-05-07T07:20:59;19.63;71.07
70830;SHT30;58451;51.550;7.208;2023-05-07T07:22:32;19.67;70.43
70830;SHT30;58451;51.550;7.208;2023-05-07T07:24:04;19.68;70.30
70830;SHT30;58451;51.550;7.208;2023-05-07T07:25:36;19.67;69.23
70830;SHT30;58451;51.550;7.208;2023-05-07T07:27:08;19.69;69.82
70830;SHT30;58451;51.550;7.208;2023-05-07T07:28:46;19.67;69.28
70830;SHT30;58451;51.550;7.208;2023-05-07T07:30:21;19.65;69.07
70830;SHT30;58451;51.550;7.208;2023-05-07T07:31:53;19.68;69.25
70830;SHT30;58451;51.550;7.208;2023-05-07T07:33:25;19.68;69.00
70830;SHT30;58451;51.550;7.208;2023-05-07T07:34:57;19.66;69.32
70830;SHT30;58451;51.550;7.208;2023-05-07T07:36:29;19.69;68.97
70830;SHT30;58451;51.550;7.208;2023-05-07T07:38:15;19.71;69.03
70830;SHT30;58451;51.550;7.208;2023-05-07T07:39:47;19.75;69.07
70830;SHT30;58451;51.550;7.208;2023-05-07T07:41:19;19.74;69.02
70830;SHT30;58451;51.550;7.208;2023-05-07T07:42:52;19.72;68.60
70830;SHT30;58451;51.550;7.208;2023-05-07T07:44:24;19.60;68.50
70830;SHT30;58451;51.550;7.208;2023-05-07T07:46:01;19.51;68.70
70830;SHT30;58451;51.550;7.208;2023-05-07T07:47:33;19.46;68.72
70830;SHT30;58451;51.550;7.208;2023-05-07T07:49:05;19.44;68.58
70830;SHT30;58451;51.550;7.208;2023-05-07T07:50:37;19.43;68.48
70830;SHT30;58451;51.550;7.208;2023-05-07T07:52:17;19.45;68.72
70830;SHT30;58451;51.550;7.208;2023-05-07T07:53:50;19.52;68.75
70830;SHT30;58451;51.550;7.208;2023-05-07T07:55:22;19.62;68.83
70830;SHT30;58451;51.550;7.208;2023-05-07T07:56:55;19.77;68.57
70830;SHT30;58451;51.550;7.208;2023-05-07T07:58:28;19.83;68.08
70830;SHT30;58451;51.550;7.208;2023-05-07T08:00:00;19.89;68.10
70830;SHT30;58451;51.550;7.208;2023-05-07T08:01:33;20.00;68.07
70830;SHT30;58451;51.550;7.208;2023-05-07T08:03:05;20.12;67.58
70830;SHT30;58451;51.550;7.208;2023-05-07T08:04:42;20.16;67.18
70830;SHT30;58451;51.550;7.208;2023-05-07T08:06:17;20.24;66.95
70830;SHT30;58451;51.550;7.208;2023-05-07T08:18:09;20.20;66.63
70830;SHT30;58451;51.550;7.208;2023-05-07T08:19:42;20.19;66.97
70830;SHT30;58451;51.550;7.208;2023-05-07T08:21:16;20.25;66.85
70830;SHT30;58451;51.550;7.208;2023-05-07T08:22:48;20.30;66.78
70830;SHT30;58451;51.550;7.208;2023-05-07T08:24:20;20.37;66.13
70830;SHT30;58451;51.550;7.208;2023-05-07T08:25:52;20.33;65.62
70830;SHT30;58451;51.550;7.208;2023-05-07T08:27:24;20.29;66.03
70830;SHT30;58451;51.550;7.208;2023-05-07T08:28:56;20.37;65.98
70830;SHT30;58451;51.550;7.208;2023-05-07T08:30:28;20.42;65.85
70830;SHT30;58451;51.550;7.208;2023-05-07T08:32:00;20.45;66.00
70830;SHT30;58451;51.550;7.208;2023-05-07T08:33:32;20.55;66.12
70830;SHT30;58451;51.550;7.208;2023-05-07T08:35:04;20.65;65.33
70830;SHT30;58451;51.550;7.208;2023-05-07T08:36:37;20.63;64.70
70830;SHT30;58451;51.550;7.208;2023-05-07T08:38:09;20.63;64.85
70830;SHT30;58451;51.550;7.208;2023-05-07T08:39:41;20.71;65.10
70830;SHT30;58451;51.550;7.208;2023-05-07T08:41:18;20.76;64.85
70830;SHT30;58451;51.550;7.208;2023-05-07T08:42:51;20.83;64.97
70830;SHT30;58451;51.550;7.208;2023-05-07T08:44:26;20.90;64.37
70830;SHT30;58451;51.550;7.208;2023-05-07T08:46:00;20.90;64.27
70830;SHT30;58451;51.550;7.208;2023-05-07T08:47:39;20.90;64.12
70830;SHT30;58451;51.550;7.208;2023-05-07T08:49:20;20.92;64.17
70830;SHT30;58451;51.550;7.208;2023-05-07T08:50:52;20.93;64.13
70830;SHT30;58451;51.550;7.208;2023-05-07T08:52:24;20.96;63.95
70830;SHT30;58451;51.550;7.208;2023-05-07T08:53:58;21.03;64.22
70830;SHT30;58451;51.550;7.208;2023-05-07T08:55:35;21.03;63.82
70830;SHT30;58451;51.550;7.208;2023-05-07T08:57:07;20.97;63.73
70830;SHT30;58451;51.550;7.208;2023-05-07T08:58:39;20.92;63.70
70830;SHT30;58451;51.550;7.208;2023-05-07T09:00:11;20.89;63.90
70830;SHT30;58451;51.550;7.208;2023-05-07T09:01:44;20.90;63.83
70830;SHT30;58451;51.550;7.208;2023-05-07T09:03:16;20.94;63.87
70830;SHT30;58451;51.550;7.208;2023-05-07T09:04:51;21.01;64.23
70830;SHT30;58451;51.550;7.208;2023-05-07T09:06:24;21.15;64.17
70830;SHT30;58451;51.550;7.208;2023-05-07T09:07:58;21.23;63.38
70830;SHT30;58451;51.550;7.208;2023-05-07T09:09:33;21.32;63.02
70830;SHT30;58451;51.550;7.208;2023-05-07T09:11:05;21.33;63.00
70830;SHT30;58451;51.550;7.208;2023-05-07T09:12:37;21.39;62.92
70830;SHT30;58451;51.550;7.208;2023-05-07T09:14:10;21.50;62.12
70830;SHT30;58451;51.550;7.208;2023-05-07T09:15:45;21.49;61.43
70830;SHT30;58451;51.550;7.208;2023-05-07T09:17:18;21.47;61.78
70830;SHT30;58451;51.550;7.208;2023-05-07T09:18:53;21.48;61.60
70830;SHT30;58451;51.550;7.208;2023-05-07T09:20:26;21.46;61.43
70830;SHT30;58451;51.550;7.208;2023-05-07T09:21:59;21.50;61.15
70830;SHT30;58451;51.550;7.208;2023-05-07T09:23:33;21.53;60.98
70830;SHT30;58451;51.550;7.208;2023-05-07T09:25:06;21.59;61.10
70830;SHT30;58451;51.550;7.208;2023-05-07T09:26:39;21.72;61.05
70830;SHT30;58451;51.550;7.208;2023-05-07T09:28:12;21.79;60.50
70830;SHT30;58451;51.550;7.208;2023-05-07T09:29:44;21.84;60.45
70830;SHT30;58451;51.550;7.208;2023-05-07T09:31:16;21.91;60.28
70830;SHT30;58451;51.550;7.208;2023-05-07T09:32:53;22.03;60.77
70830;SHT30;58451;51.550;7.208;2023-05-07T09:34:25;22.24;60.43
70830;SHT30;58451;51.550;7.208;2023-05-07T09:35:57;22.39;59.42
70830;SHT30;58451;51.550;7.208;2023-05-07T09:37:30;22.54;58.75
70830;SHT30;58451;51.550;7.208;2023-05-07T09:39:04;22.66;58.30
70830;SHT30;58451;51.550;7.208;2023-05-07T09:40:36;22.74;58.55
70830;SHT30;58451;51.550;7.208;2023-05-07T09:42:11;22.85;58.55
70830;SHT30;58451;51.550;7.208;2023-05-07T09:43:46;23.02;58.32
70830;SHT30;58451;51.550;7.208;2023-05-07T09:45:28;23.15;57.98
70830;SHT30;58451;51.550;7.208;2023-05-07T09:47:01;23.17;57.60
70830;SHT30;58451;51.550;7.208;2023-05-07T09:48:42;23.22;57.60
70830;SHT30;58451;51.550;7.208;2023-05-07T09:50:15;23.24;56.82
70830;SHT30;58451;51.550;7.208;2023-05-07T09:51:51;23.14;57.15
70830;SHT30;58451;51.550;7.208;2023-05-07T09:53:29;23.10;57.50
70830;SHT30;58451;51.550;7.208;2023-05-07T09:55:02;23.13;56.83
70830;SHT30;58451;51.550;7.208;2023-05-07T09:56:36;23.07;56.87
70830;SHT30;58451;51.550;7.208;2023-05-07T09:58:09;23.05;56.90